Time;durP1;ratioP1;P1;durP2;ratioP2;P2;SDS_P1;SDS_P2;PMS_P1;PMS_P2;Temp;Humidity;BMP_temperature;BMP_pressure;BME280_temperature;BME280_humidity;BME280_pressure;Samples;Min_cycle;Max_cycle;Signal;HPM_P1;HPM_P2
2023/01/03 00:01:16;;;;;;;7.20;2.47;;;18.30;69.80;;;;;;4415280;32;20634;-70
2023/01/03 00:03:42;;;;;;;6.97;2.72;;;18.30;69.80;;;;;;4416524;32;20094;-70
2023/01/03 00:06:18;;;;;;;7.75;2.50;;;18.30;69.80;;;;;;4417716;32;20090;-70
2023/01/03 00:08:46;;;;;;;8.98;2.67;;;18.30;69.70;;;;;;4421121;32;20122;-70
2023/01/03 00:12:22;;;;;;;9.18;2.58;;;18.30;69.80;;;;;;4421146;32;20146;-70
2023/01/03 00:14:06;;;;;;;6.40;2.55;;;18.30;69.70;;;;;;4420371;32;20074;-70
2023/01/03 00:16:32;;;;;;;7.68;2.55;;;18.20;70.60;;;;;;4418026;32;20597;-70
2023/01/03 00:18:58;;;;;;;6.88;2.60;;;18.20;69.70;;;;;;4418250;32;20493;-70
2023/01/03 00:21:24;;;;;;;6.45;2.08;;;18.20;69.60;;;;;;4416985;32;20098;-70
2023/01/03 00:23:50;;;;;;;8.73;2.25;;;18.20;69.60;;;;;;4416114;32;20196;-71
2023/01/03 00:26:16;;;;;;;8.48;2.25;;;18.20;69.60;;;;;;4416272;32;20164;-71
2023/01/03 00:28:42;;;;;;;7.65;2.58;;;18.20;69.50;;;;;;4415962;32;20168;-70
2023/01/03 00:31:10;;;;;;;8.13;2.50;;;18.20;69.50;;;;;;4414339;32;20079;-71
2023/01/03 00:33:37;;;;;;;7.40;2.60;;;18.20;69.50;;;;;;4415796;32;20075;-70
2023/01/03 00:36:05;;;;;;;6.60;2.22;;;18.20;69.50;;;;;;4415023;32;20517;-70
2023/01/03 00:38:31;;;;;;;7.00;2.53;;;18.20;69.50;;;;;;4414558;32;20093;-70
2023/01/03 00:41:24;;;;;;;8.00;2.47;;;18.20;69.40;;;;;;4412960;32;20078;-71
2023/01/03 00:43:50;;;;;;;7.72;2.42;;;18.20;69.40;;;;;;4412484;32;20088;-70
2023/01/03 00:46:18;;;;;;;6.20;2.22;;;18.10;69.30;;;;;;4417698;32;20071;-70
2023/01/03 00:48:46;;;;;;;6.07;2.10;;;18.10;69.30;;;;;;4414771;32;20130;-70
2023/01/03 00:51:18;;;;;;;7.05;2.33;;;18.10;69.20;;;;;;4415562;32;20071;-70
2023/01/03 00:53:46;;;;;;;8.65;2.70;;;18.10;69.20;;;;;;4416968;32;20138;-70
2023/01/03 00:56:16;;;;;;;9.48;2.03;;;18.10;69.20;;;;;;4418459;32;20079;-70
2023/01/03 00:58:43;;;;;;;6.93;2.40;;;18.10;69.10;;;;;;4416665;32;20130;-70
2023/01/03 01:01:12;;;;;;;5.20;2.00;;;18.10;69.20;;;;;;4416193;32;20232;-71
2023/01/03 01:03:41;;;;;;;5.72;2.10;;;18.10;69.10;;;;;;4416547;32;20105;-70
2023/01/03 01:06:16;;;;;;;7.32;2.13;;;18.10;69.10;;;;;;4415325;32;20308;-72
2023/01/03 01:08:43;;;;;;;5.72;2.50;;;18.10;69.00;;;;;;4416301;32;20220;-70
2023/01/03 01:11:13;;;;;;;6.07;1.83;;;18.00;69.10;;;;;;4414657;32;20156;-70
2023/01/03 01:13:41;;;;;;;5.28;1.90;;;18.00;69.10;;;;;;4416851;32;20101;-70
2023/01/03 01:16:15;;;;;;;6.22;2.05;;;18.00;69.10;;;;;;4402178;32;20472;-71
2023/01/03 01:18:43;;;;;;;3.90;1.65;;;18.00;69.10;;;;;;4417823;32;20070;-70
2023/01/03 01:21:15;;;;;;;6.50;2.10;;;18.00;69.10;;;;;;4423108;32;20179;-70
2023/01/03 01:23:42;;;;;;;5.70;1.80;;;18.00;69.20;;;;;;4413436;32;20066;-71
2023/01/03 01:26:11;;;;;;;3.88;1.85;;;18.00;69.20;;;;;;4415928;32;20075;-70
2023/01/03 01:28:37;;;;;;;7.72;2.17;;;18.00;69.20;;;;;;4415291;32;20670;-71
2023/01/03 01:31:08;;;;;;;6.10;1.75;;;17.90;69.10;;;;;;4414955;32;20141;-71
2023/01/03 01:33:38;;;;;;;5.15;1.90;;;18.00;69.20;;;;;;4418162;32;20206;-70
2023/01/03 01:36:09;;;;;;;5.32;1.77;;;18.00;69.20;;;;;;4418095;32;20067;-70
2023/01/03 01:38:35;;;;;;;5.78;1.90;;;17.90;69.10;;;;;;4417162;32;20118;-70
2023/01/03 01:41:01;;;;;;;5.40;1.77;;;17.90;69.10;;;;;;4430981;32;20089;-70
2023/01/03 01:46:31;;;;;;;3.45;1.40;;;17.90;69.10;;;;;;4419040;32;20074;-70
2023/01/03 01:49:02;;;;;;;5.07;1.90;;;17.90;68.90;;;;;;4419307;32;20416;-70
2023/01/03 01:51:31;;;;;;;5.43;1.73;;;17.90;69.10;;;;;;4416628;32;20074;-70
2023/01/03 01:53:59;;;;;;;3.72;1.60;;;17.90;69.00;;;;;;4418402;32;20240;-70
2023/01/03 01:56:33;;;;;;;4.05;1.80;;;17.80;69.00;;;;;;4419670;32;20135;-70
2023/01/03 01:58:59;;;;;;;5.10;1.58;;;17.80;69.00;;;;;;4417569;32;20236;-70
2023/01/03 02:01:26;;;;;;;4.18;1.90;;;17.80;69.00;;;;;;4418337;32;20275;-71
2023/01/03 02:04:00;;;;;;;4.18;1.80;;;17.80;69.00;;;;;;4416804;32;20216;-70
2023/01/03 02:06:28;;;;;;;4.60;1.30;;;17.80;68.90;;;;;;4418351;32;20142;-70
2023/01/03 02:08:53;;;;;;;4.25;1.80;;;17.80;69.00;;;;;;4416155;32;20086;-70
2023/01/03 02:15:12;;;;;;;4.43;1.60;;;17.80;68.90;;;;;;4418965;32;20090;-70
2023/01/03 02:18:03;;;;;;;5.15;1.67;;;17.80;68.90;;;;;;4417029;32;20405;-70
2023/01/03 02:20:39;;;;;;;3.75;1.38;;;17.80;69.00;;;;;;4418533;32;20180;-70
2023/01/03 02:23:18;;;;;;;4.43;1.42;;;17.80;68.90;;;;;;4418432;32;20138;-70
2023/01/03 02:25:54;;;;;;;4.78;2.00;;;17.70;68.80;;;;;;4415688;32;20280;-70
2023/01/03 02:28:58;;;;;;;4.22;1.50;;;17.70;68.90;;;;;;4415827;32;20089;-70
2023/01/03 02:31:28;;;;;;;;;;;17.70;68.80;;;;;;4416730;32;20147;-71
2023/01/03 02:34:01;;;;;;;2.95;1.45;;;17.70;68.90;;;;;;4416167;32;19986;-71
2023/01/03 02:36:46;;;;;;;3.60;1.42;;;17.70;68.90;;;;;;4417162;32;20472;-71
2023/01/03 02:39:26;;;;;;;2.55;1.30;;;17.70;68.90;;;;;;4414663;32;20094;-70
2023/01/03 02:45:13;;;;;;;5.53;1.80;;;17.70;68.90;;;;;;4382550;32;21240;-70
2023/01/03 02:48:08;;;;;;;3.13;1.48;;;17.60;68.90;;;;;;4382705;32;20139;-70
2023/01/03 02:50:50;;;;;;;4.43;1.73;;;17.70;68.90;;;;;;4408541;32;20102;-70
2023/01/03 02:53:31;;;;;;;2.85;1.17;;;17.60;68.80;;;;;;4416728;32;20181;-70
2023/01/03 02:56:03;;;;;;;2.80;1.30;;;17.60;69.80;;;;;;4416767;32;20236;-70
2023/01/03 02:58:36;;;;;;;5.32;1.73;;;17.60;68.90;;;;;;4416233;32;20640;-70
2023/01/03 03:01:04;;;;;;;3.45;1.25;;;17.60;68.90;;;;;;4417510;32;20071;-70
2023/01/03 03:03:36;;;;;;;3.75;1.45;;;17.60;68.90;;;;;;4423726;32;20078;-70
2023/01/03 03:06:20;;;;;;;4.85;1.42;;;17.60;68.90;;;;;;4430381;32;20070;-70
2023/01/03 03:08:47;;;;;;;4.30;1.30;;;17.60;68.90;;;;;;4424578;32;20106;-70
2023/01/03 03:14:27;;;;;;;3.70;1.27;;;17.60;69.00;;;;;;4425442;32;20086;-70
2023/01/03 03:16:58;;;;;;;4.75;1.30;;;17.60;69.00;;;;;;4428918;32;20075;-69
2023/01/03 03:25:06;;;;;;;3.58;1.23;;;17.50;68.90;;;;;;4429876;32;20070;-70
2023/01/03 03:30:21;;;;;;;3.33;1.45;;;17.50;68.90;;;;;;4430104;32;20208;-69
2023/01/03 03:32:50;;;;;;;3.35;1.30;;;17.50;69.70;;;;;;4430224;32;20078;-70
2023/01/03 03:35:21;;;;;;;3.33;1.70;;;17.50;68.90;;;;;;4429871;32;20240;-70
2023/01/03 03:37:50;;;;;;;2.47;1.13;;;17.50;68.90;;;;;;4430062;32;20078;-70
2023/01/03 03:46:20;;;;;;;2.88;1.30;;;17.50;68.90;;;;;;4429672;32;20307;-69
2023/01/03 03:51:55;;;;;;;1.73;1.00;;;17.50;68.90;;;;;;4429753;32;20208;-70
2023/01/03 03:54:23;;;;;;;3.00;1.27;;;17.40;68.90;;;;;;4429517;32;20093;-69
2023/01/03 03:56:56;;;;;;;2.78;1.23;;;17.40;69.80;;;;;;4429666;32;20110;-69
2023/01/03 03:59:24;;;;;;;2.28;0.90;;;17.40;68.90;;;;;;4429726;32;20224;-70
2023/01/03 04:01:51;;;;;;;2.15;1.05;;;17.40;68.90;;;;;;4429630;32;20070;-70
2023/01/03 04:04:22;;;;;;;2.45;1.10;;;17.40;68.90;;;;;;4429587;32;20078;-69
2023/01/03 04:06:51;;;;;;;2.83;1.13;;;17.40;68.90;;;;;;4415858;32;20240;-70
2023/01/03 04:09:18;;;;;;;3.03;1.17;;;17.40;68.90;;;;;;4429427;32;20089;-69
2023/01/03 04:11:43;;;;;;;2.20;0.98;;;17.30;68.80;;;;;;4429608;32;20067;-70
2023/01/03 04:14:10;;;;;;;3.33;1.45;;;17.40;68.80;;;;;;4429438;32;20424;-70
2023/01/03 04:16:36;;;;;;;2.78;1.10;;;17.40;68.80;;;;;;4429759;32;20547;-70
2023/01/03 04:19:03;;;;;;;2.55;1.13;;;17.30;68.90;;;;;;4429075;32;20211;-70
2023/01/03 04:21:29;;;;;;;3.17;1.10;;;17.40;68.80;;;;;;4429272;32;20151;-69
2023/01/03 04:23:55;;;;;;;2.08;1.08;;;17.40;68.80;;;;;;4429408;32;20106;-70
2023/01/03 04:26:21;;;;;;;3.33;0.90;;;17.30;68.90;;;;;;4429361;32;20148;-69
2023/01/03 04:28:47;;;;;;;1.52;0.90;;;17.30;68.80;;;;;;4429442;32;20531;-70
2023/01/03 04:31:14;;;;;;;3.38;1.13;;;17.30;68.80;;;;;;4429729;32;20211;-69
2023/01/03 04:33:41;;;;;;;2.35;1.15;;;17.30;68.80;;;;;;4429150;32;20208;-71
2023/01/03 04:36:08;;;;;;;2.28;1.02;;;17.30;68.90;;;;;;4429392;32;20520;-69
2023/01/03 04:38:39;;;;;;;1.95;1.05;;;17.30;68.80;;;;;;4429068;32;20082;-70
2023/01/03 04:41:06;;;;;;;2.30;1.15;;;17.30;68.80;;;;;;4429630;32;20093;-69
2023/01/03 04:46:24;;;;;;;2.67;1.10;;;17.20;68.80;;;;;;4429502;32;20101;-69
2023/01/03 04:48:58;;;;;;;3.00;1.05;;;17.30;68.90;;;;;;4428602;32;20105;-70
2023/01/03 04:51:24;;;;;;;2.03;0.93;;;17.20;68.80;;;;;;4429061;32;20416;-70
2023/01/03 04:53:51;;;;;;;2.42;0.70;;;17.20;68.80;;;;;;4428826;32;20082;-70
2023/01/03 04:56:17;;;;;;;2.85;1.10;;;17.20;68.80;;;;;;4429304;32;20436;-70
2023/01/03 04:58:43;;;;;;;2.53;1.17;;;17.20;68.80;;;;;;4429186;32;20055;-70
2023/01/03 05:01:09;;;;;;;2.38;0.90;;;17.20;68.70;;;;;;4428983;32;20241;-70
2023/01/03 05:03:36;;;;;;;1.27;0.75;;;17.20;68.80;;;;;;4429121;32;20098;-70
2023/01/03 05:06:05;;;;;;;1.90;0.90;;;17.20;68.80;;;;;;4433265;32;20159;-69
2023/01/03 05:08:32;;;;;;;1.98;0.80;;;17.20;68.80;;;;;;4420330;32;20078;-70
2023/01/03 05:10:57;;;;;;;2.13;0.90;;;17.20;68.80;;;;;;4431953;32;20082;-70
2023/01/03 05:13:23;;;;;;;1.45;1.00;;;17.10;68.80;;;;;;4418284;32;20532;-69
2023/01/03 05:15:50;;;;;;;1.83;0.85;;;17.20;68.80;;;;;;4432016;32;20420;-70
2023/01/03 05:18:16;;;;;;;1.98;0.95;;;17.20;68.80;;;;;;4418216;32;20563;-69
2023/01/03 05:26:20;;;;;;;2.65;1.20;;;17.10;68.80;;;;;;4420330;32;20081;-69
2023/01/03 05:28:49;;;;;;;1.50;0.60;;;17.10;68.80;;;;;;4431883;32;20133;-70
2023/01/03 05:31:15;;;;;;;1.65;0.88;;;17.10;68.80;;;;;;4431942;32;20216;-70
2023/01/03 05:33:41;;;;;;;2.13;0.85;;;17.00;68.70;;;;;;4431751;32;20074;-70
2023/01/03 05:36:09;;;;;;;2.42;0.85;;;17.10;68.70;;;;;;4432062;32;20160;-70
2023/01/03 05:38:37;;;;;;;2.58;1.00;;;17.10;68.60;;;;;;4431685;32;20082;-70
2023/01/03 05:41:04;;;;;;;1.65;0.80;;;17.10;68.50;;;;;;4418011;32;20125;-69
2023/01/03 05:43:30;;;;;;;3.15;1.00;;;17.10;68.40;;;;;;4431489;32;20523;-73
2023/01/03 05:45:56;;;;;;;1.13;0.70;;;17.20;68.50;;;;;;4431614;32;20644;-69
2023/01/03 05:48:22;;;;;;;2.03;0.90;;;17.20;68.30;;;;;;4431714;32;20070;-69
2023/01/03 05:50:51;;;;;;;3.08;0.90;;;17.20;68.30;;;;;;4431075;32;20594;-69
2023/01/03 05:53:17;;;;;;;1.98;0.80;;;17.20;68.20;;;;;;4430928;32;20070;-70
2023/01/03 05:55:45;;;;;;;1.40;0.90;;;17.20;68.10;;;;;;4431256;32;20170;-70
2023/01/03 05:58:11;;;;;;;2.00;0.80;;;17.30;68.10;;;;;;4431600;32;20385;-69
2023/01/03 06:00:37;;;;;;;1.33;0.70;;;17.30;68.00;;;;;;4430065;32;20165;-70
2023/01/03 06:03:04;;;;;;;1.88;0.90;;;17.30;68.00;;;;;;4431623;32;20090;-69
2023/01/03 06:05:36;;;;;;;1.70;1.05;;;17.30;67.90;;;;;;4431428;32;20276;-72
2023/01/03 06:08:02;;;;;;;1.90;0.90;;;17.30;67.80;;;;;;4431539;32;20082;-69
2023/01/03 06:10:28;;;;;;;3.00;1.00;;;17.30;67.70;;;;;;4431270;32;20168;-69
2023/01/03 06:12:55;;;;;;;1.92;0.90;;;17.30;67.60;;;;;;4427960;32;20244;-69
2023/01/03 06:15:21;;;;;;;1.55;0.80;;;17.40;67.70;;;;;;4431171;32;20090;-69
2023/01/03 06:17:56;;;;;;;1.08;0.60;;;17.30;67.60;;;;;;4430877;32;20082;-70
2023/01/03 06:20:23;;;;;;;2.42;0.90;;;17.40;67.50;;;;;;4431057;32;20089;-70
2023/01/03 06:22:48;;;;;;;1.40;0.60;;;17.40;67.50;;;;;;4431025;32;20171;-70
2023/01/03 06:25:14;;;;;;;1.40;0.63;;;17.40;67.50;;;;;;4431086;32;20144;-70
2023/01/03 06:27:40;;;;;;;1.95;0.77;;;17.40;67.40;;;;;;4430933;32;20408;-70
2023/01/03 06:30:07;;;;;;;1.88;0.80;;;17.40;67.40;;;;;;4430725;32;20401;-69
2023/01/03 06:32:33;;;;;;;1.70;0.90;;;17.40;67.40;;;;;;4431046;32;20081;-70
2023/01/03 06:34:59;;;;;;;2.50;0.60;;;17.40;67.40;;;;;;4430935;32;20063;-69
2023/01/03 06:37:24;;;;;;;2.42;1.08;;;17.40;67.50;;;;;;4430854;32;20070;-70
2023/01/03 06:39:50;;;;;;;1.80;0.73;;;17.40;67.70;;;;;;4430844;32;20504;-69
2023/01/03 06:53:17;;;;;;;2.58;0.80;;;17.70;67.20;;;;;;4430501;32;20104;-69
2023/01/03 06:55:45;;;;;;;1.10;0.52;;;17.90;67.00;;;;;;4430514;32;20101;-71
2023/01/03 06:58:12;;;;;;;1.80;0.68;;;18.00;66.60;;;;;;4430779;32;20204;-69
2023/01/03 07:00:42;;;;;;;3.58;0.50;;;18.20;66.30;;;;;;4422443;32;20533;-72
2023/01/03 07:03:15;;;;;;;2.40;0.77;;;18.30;66.10;;;;;;4430539;32;20081;-71
2023/01/03 07:05:40;;;;;;;3.58;0.60;;;18.40;65.70;;;;;;4430337;32;20075;-71
2023/01/03 07:08:06;;;;;;;3.15;0.88;;;18.50;65.40;;;;;;4430375;32;20114;-70
2023/01/03 07:10:32;;;;;;;1.23;0.55;;;18.60;65.10;;;;;;4430492;32;20573;-69
2023/01/03 07:15:46;;;;;;;4.43;0.70;;;18.70;64.90;;;;;;4430542;32;20133;-69
2023/01/03 07:18:13;;;;;;;1.35;0.60;;;18.80;64.90;;;;;;4430086;32;20074;-70
2023/01/03 07:20:43;;;;;;;2.63;0.50;;;18.80;64.90;;;;;;4419602;32;20101;-70
2023/01/03 07:23:11;;;;;;;2.45;0.60;;;18.80;64.90;;;;;;4430166;32;20224;-71
2023/01/03 07:25:41;;;;;;;3.25;0.73;;;18.80;64.70;;;;;;4430151;32;20130;-71
2023/01/03 07:28:11;;;;;;;2.38;0.90;;;18.80;64.60;;;;;;4429599;32;20192;-70
2023/01/03 07:30:44;;;;;;;1.80;0.82;;;18.80;64.60;;;;;;4405992;32;20227;-70
2023/01/03 07:33:12;;;;;;;1.95;0.70;;;18.80;64.50;;;;;;4430200;32;20156;-70
2023/01/03 07:35:38;;;;;;;6.32;0.88;;;18.80;64.50;;;;;;4429885;32;20086;-69
2023/01/03 07:38:12;;;;;;;3.45;0.88;;;18.90;64.50;;;;;;4430204;32;20539;-69
2023/01/03 07:40:38;;;;;;;2.92;1.10;;;18.90;64.50;;;;;;4429751;32;20220;-70
2023/01/03 07:45:48;;;;;;;2.85;0.70;;;19.00;64.50;;;;;;4429869;32;20086;-70
2023/01/03 07:48:14;;;;;;;2.33;0.63;;;19.00;64.60;;;;;;4429973;32;20634;-70
2023/01/03 07:50:41;;;;;;;3.05;0.80;;;19.00;64.60;;;;;;4415546;32;20074;-70
2023/01/03 07:53:07;;;;;;;7.13;0.80;;;19.00;64.70;;;;;;4429686;32;20200;-71
2023/01/03 07:55:35;;;;;;;2.75;0.70;;;19.00;64.80;;;;;;4429748;32;20417;-70
2023/01/03 07:58:02;;;;;;;4.28;0.90;;;19.00;64.90;;;;;;4420639;32;20066;-71
2023/01/03 08:00:28;;;;;;;3.78;0.85;;;18.90;65.00;;;;;;4429700;32;20184;-71
2023/01/03 08:02:54;;;;;;;2.17;1.05;;;18.90;65.10;;;;;;4429369;32;20548;-75
2023/01/03 08:05:21;;;;;;;2.55;1.10;;;18.90;65.10;;;;;;4429843;32;20598;-71
2023/01/03 08:07:48;;;;;;;13.80;1.00;;;18.90;65.20;;;;;;4429279;32;20401;-73
2023/01/03 08:13:18;;;;;;;5.03;1.45;;;18.90;65.30;;;;;;4429247;32;20530;-73
2023/01/03 08:15:44;;;;;;;;;;;18.90;65.30;;;;;;4430262;32;20074;-70
2023/01/03 08:18:10;;;;;;;6.18;1.52;;;18.90;65.20;;;;;;4429205;32;19974;-72
2023/01/03 08:20:38;;;;;;;2.88;1.48;;;18.90;64.90;;;;;;4429183;32;20085;-72
2023/01/03 08:23:04;;;;;;;4.50;1.55;;;18.90;64.90;;;;;;4429114;32;20304;-71
2023/01/03 08:25:32;;;;;;;5.60;1.42;;;18.90;64.90;;;;;;4429388;32;20101;-70
2023/01/03 08:27:59;;;;;;;4.18;1.10;;;18.90;64.80;;;;;;4429118;32;20066;-72
2023/01/03 08:30:27;;;;;;;4.10;1.40;;;19.00;64.70;;;;;;4429109;32;20075;-74
2023/01/03 08:32:55;;;;;;;4.72;1.20;;;19.00;64.60;;;;;;4429354;32;20078;-75
2023/01/03 08:35:24;;;;;;;2.10;1.15;;;19.00;64.50;;;;;;4429214;32;20090;-72
2023/01/03 08:37:52;;;;;;;4.20;1.38;;;19.00;64.40;;;;;;4429393;32;20086;-72
2023/01/03 08:40:18;;;;;;;8.30;1.95;;;19.00;64.40;;;;;;4418668;32;20545;-73
2023/01/03 08:42:45;;;;;;;5.18;1.20;;;19.00;64.40;;;;;;4419738;32;20070;-72
2023/01/03 08:45:14;;;;;;;4.72;1.25;;;19.00;64.20;;;;;;4429219;32;20500;-73
2023/01/03 08:47:42;;;;;;;6.65;1.25;;;19.00;64.30;;;;;;4429032;32;20078;-73
2023/01/03 08:50:10;;;;;;;3.08;1.20;;;19.00;64.30;;;;;;4428942;32;20067;-72
2023/01/03 08:52:39;;;;;;;2.60;1.10;;;19.00;64.30;;;;;;4428874;32;20088;-74
2023/01/03 08:55:07;;;;;;;6.97;1.73;;;19.00;64.30;;;;;;4428991;32;20248;-75
2023/01/03 08:57:33;;;;;;;4.55;1.20;;;19.10;64.30;;;;;;4428928;32;20488;-72
2023/01/03 08:59:59;;;;;;;5.47;1.75;;;19.00;64.20;;;;;;4428913;32;20067;-73
2023/01/03 09:02:25;;;;;;;4.57;1.40;;;19.10;65.10;;;;;;4428847;32;20209;-73
2023/01/03 09:04:51;;;;;;;5.35;1.85;;;19.00;64.00;;;;;;4428873;32;20078;-73
2023/01/03 09:07:17;;;;;;;5.38;1.52;;;19.10;63.80;;;;;;4429030;32;20106;-78
2023/01/03 09:09:42;;;;;;;7.53;1.70;;;19.10;63.70;;;;;;4428787;32;20132;-73
2023/01/03 09:12:08;;;;;;;5.53;2.35;;;19.20;63.10;;;;;;4428806;32;20220;-72
2023/01/03 09:14:35;;;;;;;6.90;2.22;;;19.20;62.90;;;;;;4428779;32;20067;-70
2023/01/03 09:17:07;;;;;;;4.65;2.15;;;19.30;63.00;;;;;;4419439;32;20531;-73
2023/01/03 09:19:33;;;;;;;6.25;2.00;;;19.20;62.90;;;;;;4426029;32;20142;-70
2023/01/03 09:21:59;;;;;;;6.00;1.90;;;19.30;63.10;;;;;;4415496;32;20393;-71
2023/01/03 09:24:25;;;;;;;8.43;1.80;;;19.20;63.30;;;;;;4428655;32;20535;-71
2023/01/03 09:26:52;;;;;;;5.50;1.63;;;19.20;63.40;;;;;;4428946;32;20495;-71
2023/01/03 09:29:18;;;;;;;4.13;1.70;;;19.20;63.60;;;;;;4415623;32;20082;-71
2023/01/03 09:31:54;;;;;;;5.93;1.80;;;19.20;63.80;;;;;;4416053;32;20424;-72
2023/01/03 09:34:21;;;;;;;11.05;2.05;;;19.20;64.00;;;;;;4429104;32;20524;-71
2023/01/03 09:36:47;;;;;;;6.05;1.45;;;19.10;64.10;;;;;;4428727;32;20188;-72
2023/01/03 09:39:14;;;;;;;4.45;1.60;;;19.10;64.20;;;;;;4428812;32;20094;-72
2023/01/03 09:41:44;;;;;;;5.50;1.90;;;19.10;64.30;;;;;;4428831;32;20086;-71
2023/01/03 09:44:10;;;;;;;4.88;1.48;;;19.10;64.40;;;;;;4428568;32;20089;-72
2023/01/03 09:46:36;;;;;;;4.68;2.13;;;19.00;64.60;;;;;;4428853;32;20157;-72
2023/01/03 09:49:04;;;;;;;3.90;2.17;;;19.10;64.70;;;;;;4428262;32;20217;-71
2023/01/03 10:06:19;;;;;;;5.03;2.30;;;19.00;64.40;;;;;;4431205;32;20050;-70
2023/01/03 10:09:01;;;;;;;7.45;2.60;;;18.90;63.90;;;;;;4425378;32;20624;-72
2023/01/03 10:11:47;;;;;;;5.82;2.70;;;18.90;63.50;;;;;;4430165;32;20122;-72
2023/01/03 10:14:22;;;;;;;6.65;3.67;;;18.90;63.00;;;;;;4430709;32;20496;-74
2023/01/03 10:17:10;;;;;;;6.55;3.30;;;18.90;62.70;;;;;;4430883;32;20133;-73
2023/01/03 10:19:47;;;;;;;4.82;2.40;;;18.90;62.60;;;;;;4429755;32;20181;-73
2023/01/03 10:22:20;;;;;;;6.28;2.00;;;18.90;62.60;;;;;;4417018;32;20085;-73
2023/01/03 10:25:09;;;;;;;6.68;2.22;;;18.90;62.60;;;;;;4419725;32;20195;-74
2023/01/03 10:27:47;;;;;;;7.65;2.10;;;19.00;62.60;;;;;;4431015;32;20224;-73
2023/01/03 10:30:17;;;;;;;3.47;1.80;;;19.10;62.60;;;;;;4430741;32;20196;-71
2023/01/03 10:32:42;;;;;;;4.43;1.83;;;19.10;62.60;;;;;;4430321;32;20086;-72
2023/01/03 10:35:23;;;;;;;4.63;1.88;;;19.10;62.50;;;;;;4430303;32;20071;-72
2023/01/03 10:37:51;;;;;;;4.95;1.58;;;19.10;62.50;;;;;;4429258;32;20086;-72
2023/01/03 10:40:17;;;;;;;11.25;2.10;;;19.10;62.60;;;;;;4430449;32;20110;-72
2023/01/03 10:42:44;;;;;;;2.83;1.48;;;19.20;62.60;;;;;;4428477;32;20221;-72
2023/01/03 10:45:16;;;;;;;4.20;1.23;;;19.20;62.50;;;;;;4430575;32;20140;-72
2023/01/03 10:47:41;;;;;;;8.38;1.40;;;19.20;62.30;;;;;;4418069;32;20108;-73
2023/01/03 10:50:19;;;;;;;3.40;1.25;;;19.40;62.30;;;;;;4430411;32;20110;-72
2023/01/03 10:52:50;;;;;;;3.08;1.42;;;19.40;62.20;;;;;;4430571;32;20089;-71
2023/01/03 10:55:17;;;;;;;2.67;1.50;;;19.50;62.10;;;;;;4427725;32;20079;-71
2023/01/03 10:57:45;;;;;;;3.20;1.20;;;19.50;62.10;;;;;;4429544;32;20122;-72
2023/01/03 11:00:21;;;;;;;2.53;1.10;;;19.50;62.10;;;;;;4429920;32;20479;-71
2023/01/03 11:02:49;;;;;;;2.33;1.10;;;19.50;62.20;;;;;;4429147;32;20138;-72
2023/01/03 11:05:23;;;;;;;4.75;1.10;;;19.50;62.20;;;;;;4429597;32;20276;-72
2023/01/03 11:07:58;;;;;;;2.20;1.25;;;19.50;62.20;;;;;;4429861;32;20133;-72
2023/01/03 11:10:47;;;;;;;3.28;1.05;;;19.50;62.20;;;;;;4427918;32;20094;-72
2023/01/03 11:13:22;;;;;;;3.42;1.10;;;19.50;62.30;;;;;;4432516;32;39253;-72
2023/01/03 11:15:57;;;;;;;3.80;1.40;;;19.50;62.40;;;;;;4443684;32;20092;-72
2023/01/03 11:18:26;;;;;;;3.60;1.10;;;19.50;62.40;;;;;;4445034;32;20070;-72
2023/01/03 11:21:12;;;;;;;4.13;1.20;;;19.50;62.50;;;;;;4444254;32;20153;-72
2023/01/03 11:23:50;;;;;;;2.83;1.02;;;19.50;63.30;;;;;;4443474;32;20168;-72
2023/01/03 11:26:50;;;;;;;2.35;1.20;;;19.50;62.60;;;;;;4442086;32;20153;-71
2023/01/03 11:29:17;;;;;;;1.48;1.00;;;19.50;62.60;;;;;;4438432;32;20492;-72
2023/01/03 11:32:13;;;;;;;3.33;1.20;;;19.50;62.60;;;;;;4441708;32;20066;-72
2023/01/03 11:34:57;;;;;;;4.90;1.17;;;19.50;62.70;;;;;;4436182;32;20578;-73
2023/01/03 11:37:43;;;;;;;4.78;1.08;;;19.50;62.60;;;;;;4434305;32;20164;-72
2023/01/03 11:40:35;;;;;;;3.50;1.13;;;19.50;62.70;;;;;;4409262;32;20087;-72
2023/01/03 11:43:30;;;;;;;1.80;1.02;;;19.50;62.70;;;;;;4430510;32;20173;-72
2023/01/03 11:46:05;;;;;;;3.15;1.17;;;19.50;62.80;;;;;;4430111;32;20528;-72
2023/01/03 11:48:46;;;;;;;3.35;1.20;;;19.50;62.60;;;;;;4431169;32;20100;-72
2023/01/03 11:51:48;;;;;;;3.45;1.23;;;19.60;62.70;;;;;;4432502;32;20070;-71
2023/01/03 11:54:17;;;;;;;4.03;1.35;;;19.60;62.70;;;;;;4433539;32;20220;-71
2023/01/03 11:56:45;;;;;;;2.28;0.90;;;19.60;62.70;;;;;;4433351;32;20140;-71
2023/01/03 11:59:26;;;;;;;4.45;1.20;;;19.60;62.70;;;;;;4431929;32;20522;-70
2023/01/03 12:02:24;;;;;;;1.50;0.90;;;19.60;62.70;;;;;;4432763;32;20145;-71
2023/01/03 12:05:21;;;;;;;1.73;1.25;;;19.60;62.70;;;;;;4436277;32;20093;-73
2023/01/03 12:08:19;;;;;;;2.42;1.30;;;19.60;62.60;;;;;;4440420;32;20271;-73
2023/01/03 12:11:00;;;;;;;2.50;1.10;;;19.60;62.70;;;;;;4414231;32;20078;-72
2023/01/03 12:13:48;;;;;;;7.78;1.27;;;19.60;62.80;;;;;;4435954;32;20219;-72
2023/01/03 12:16:29;;;;;;;4.57;1.00;;;19.60;62.80;;;;;;4439834;32;20070;-72
2023/01/03 12:19:12;;;;;;;1.98;0.98;;;19.60;62.80;;;;;;4440070;32;20082;-73
2023/01/03 12:21:47;;;;;;;3.08;1.20;;;19.60;62.80;;;;;;4439393;32;20134;-72
2023/01/03 12:24:18;;;;;;;3.60;1.00;;;19.60;62.80;;;;;;4440724;32;20086;-72
2023/01/03 12:26:54;;;;;;;5.45;1.45;;;19.60;62.80;;;;;;4440425;32;20659;-71
2023/01/03 12:29:28;;;;;;;2.55;1.20;;;19.60;62.80;;;;;;4439549;32;20129;-72
2023/01/03 12:32:09;;;;;;;;;;;19.60;62.80;;;;;;4440058;32;20535;-72
2023/01/03 12:34:45;;;;;;;4.60;1.20;;;19.60;62.90;;;;;;4439834;32;20044;-71
2023/01/03 12:37:16;;;;;;;1.55;0.93;;;19.60;62.90;;;;;;4440852;32;20426;-72
2023/01/03 12:39:59;;;;;;;6.32;1.08;;;19.60;62.90;;;;;;4439899;32;20096;-72
2023/01/03 12:42:45;;;;;;;2.60;0.95;;;19.60;62.80;;;;;;4431802;32;20665;-72
2023/01/03 12:45:31;;;;;;;3.38;1.42;;;19.70;62.90;;;;;;4442416;32;20507;-72
2023/01/03 12:48:19;;;;;;;2.05;1.15;;;19.70;63.00;;;;;;4442930;32;20335;-72
2023/01/03 12:50:53;;;;;;;2.78;1.10;;;19.70;62.90;;;;;;4443921;32;20207;-72
2023/01/03 12:53:37;;;;;;;2.20;1.20;;;19.70;62.90;;;;;;4442994;32;20529;-72
2023/01/03 12:56:26;;;;;;;1.92;1.20;;;19.70;62.90;;;;;;4444015;32;20145;-72
2023/01/03 12:59:08;;;;;;;2.75;1.20;;;19.70;62.90;;;;;;4444084;32;20066;-72
2023/01/03 13:01:44;;;;;;;3.15;1.13;;;19.70;62.90;;;;;;4442598;32;20070;-71
2023/01/03 13:04:44;;;;;;;1.60;1.33;;;19.70;62.90;;;;;;4444042;32;20081;-71
2023/01/03 13:07:21;;;;;;;1.20;0.90;;;19.70;62.90;;;;;;4441657;32;20074;-72
2023/01/03 13:09:54;;;;;;;2.33;1.40;;;19.70;63.00;;;;;;4442203;32;20523;-72
2023/01/03 13:12:27;;;;;;;1.58;1.10;;;19.70;63.00;;;;;;4443880;32;20074;-72
2023/01/03 13:15:02;;;;;;;2.60;2.05;;;19.70;63.00;;;;;;4442872;32;20392;-75
2023/01/03 13:17:31;;;;;;;4.43;1.80;;;19.70;63.00;;;;;;4429519;32;20271;-71
2023/01/03 13:20:24;;;;;;;2.53;2.00;;;19.70;62.90;;;;;;4428584;32;20081;-75
2023/01/03 13:23:20;;;;;;;5.78;1.85;;;19.70;62.90;;;;;;4430604;32;20128;-71
2023/01/03 13:26:14;;;;;;;2.58;1.48;;;19.70;63.00;;;;;;4434631;32;20605;-71
2023/01/03 13:28:40;;;;;;;5.63;1.80;;;19.70;63.10;;;;;;4433173;32;20098;-71
2023/01/03 13:31:18;;;;;;;2.58;1.40;;;19.70;63.10;;;;;;4433928;32;20086;-71
2023/01/03 13:34:21;;;;;;;4.15;1.63;;;19.70;63.10;;;;;;4434266;32;20167;-72
2023/01/03 13:37:06;;;;;;;4.03;1.42;;;19.80;63.20;;;;;;4446484;32;20515;-71
2023/01/03 13:39:39;;;;;;;1.75;1.42;;;19.80;63.20;;;;;;4439278;32;20101;-70
2023/01/03 13:42:17;;;;;;;4.97;1.40;;;19.80;63.20;;;;;;4446849;32;20100;-71
2023/01/03 13:44:43;;;;;;;3.50;1.48;;;19.80;63.20;;;;;;4439227;32;20087;-70
2023/01/03 13:47:28;;;;;;;1.80;1.40;;;19.80;63.20;;;;;;4432950;32;20074;-71
2023/01/03 13:50:29;;;;;;;2.55;1.42;;;19.80;63.30;;;;;;4436626;32;20294;-72
2023/01/03 13:53:18;;;;;;;3.20;1.65;;;19.80;63.30;;;;;;4429247;32;20071;-71
2023/01/03 13:56:13;;;;;;;5.03;1.73;;;19.80;63.40;;;;;;4424788;32;20089;-71
2023/01/03 13:58:59;;;;;;;1.90;1.38;;;19.80;63.50;;;;;;4444162;32;20229;-71
2023/01/03 14:02:01;;;;;;;1.98;1.20;;;19.80;63.60;;;;;;4442554;32;20094;-71
2023/01/03 14:04:48;;;;;;;4.43;1.30;;;19.80;63.80;;;;;;4446273;32;20074;-71
2023/01/03 14:08:01;;;;;;;2.85;1.40;;;19.70;63.80;;;;;;4446883;32;20098;-71
2023/01/03 14:10:39;;;;;;;2.03;1.00;;;19.70;63.80;;;;;;4444854;32;20066;-71
2023/01/03 14:13:34;;;;;;;2.53;1.20;;;19.80;63.90;;;;;;4445928;32;20495;-71
2023/01/03 14:16:14;;;;;;;3.05;1.40;;;19.80;64.00;;;;;;4446809;32;20082;-71
2023/01/03 14:18:54;;;;;;;4.15;1.33;;;19.70;63.90;;;;;;4445538;32;20090;-71
2023/01/03 14:21:25;;;;;;;5.75;1.40;;;19.70;64.00;;;;;;4446025;32;20082;-71
2023/01/03 14:23:56;;;;;;;2.35;1.30;;;19.70;64.10;;;;;;4442769;32;20121;-73
2023/01/03 14:26:23;;;;;;;2.75;1.25;;;19.70;64.10;;;;;;4425713;32;20117;-72
2023/01/03 14:28:52;;;;;;;3.67;1.27;;;19.70;64.10;;;;;;4440522;32;20191;-73